KENV

Wendover Airport

Airport
ICAO code
KENV
Summary
ICAO Region
NAM
ICAO Territory
Location

Wendover, Utah,

Elevation
4237 ft
Coordinates
40° 43' 39" N , 114° 2' 15" W
KCC
Airport RE
Hot and High Operations
Metar
KENV 040656Z AUTO 35003KT 10SM FEW100 SCT120 M03/M08 A2984 RMK AO2 SLP130 T10281078 400391061 FZRANO

Description

Wendover Airport is a public use airport located 2 km southeast of the central business district of Wendover, a city in Tooele County, Utah.

Climatology

Hot Desert Climate (Köppen climate classification BWh) - Hot desert climates are typically found in the subtropics where there is unbroken sunshine for the whole year due to the stable descending air and high pressure, little or no precipitation. Maximum temperatures of 40°C to 45°C are not uncommon, particularly during the warmer months of the year. During colder periods of the year, night-time temperatures can drop to freezing or below due to the exceptional radiation loss under the clear skies. However, very rarely do temperatures drop far below freezing.

Airport map

Aerial View

SKYbrary Partners:

Safety knowledge contributed by: